• Join FlightAware (Why Join?)
  • Login
  • US Flag 
04:29AM EDT


 

Airport Tracker/Info


-or-


 

Live Flight TrackerFlight Track Log ✈ N312BL ✈ 16-Mar-2014 ✈ KOXC - KSOP

Flight Track Log - Related Links

Times and Time Zones

All times are in EDT time to prevent confusion due to time zone crossing. See the N312BL flight status page for this flight to view local times or setup timezone preferences in your user account.

Time Position Orientation Groundspeed Altitude Reporting Facility
EDT Latitude Longitude Course Direction KTS MPH feet Rate Location/Type
10:37AM 41.5069 -73.1467 198° South 142 163 2,400  Level Boston Center
10:38AM 41.4536 -73.1700 198° South 248 285 4,500 1,320 Climbing Boston Center
10:39AM 41.3792 -73.1414 164° South 262 302 5,200 1,920 Climbing Boston Center
10:40AM 41.3172 -73.0797 143° Southeast 273 314 8,500 1,860 Climbing Boston Center
10:41AM 41.2611 -73.0308 147° Southeast 272 313 9,000 300 Climbing Boston Center
10:42AM 41.1894 -72.9633 145° Southeast 306 352 9,200 1,020 Climbing Boston Center
10:43AM 41.1172 -72.8956 145° Southeast 316 364 11,100 2,700 Climbing Boston Center
10:44AM 41.0381 -72.8211 145° Southeast 297 342 14,800 2,940 Climbing Boston Center
10:45AM 40.9856 -72.8006 164° South 218 251 17,100 1,920 Climbing Boston Center
10:46AM 40.9486 -72.8314 212° Southwest 167 192 18,800 1,680 Climbing Boston Center
10:47AM 40.9164 -72.8731 224° Southwest 156 180 20,600 1,680 Climbing Boston Center
10:48AM 40.8847 -72.9158 226° Southwest 163 188 22,300 1,680 Climbing Boston Center
10:49AM 40.8442 -72.9547 216° Southwest 179 206 24,100 1,560 Climbing Boston Center
10:50AM 40.8011 -72.9950 215° Southwest 187 215 25,600 1,560 Climbing Boston Center
10:51AM 40.7561 -73.0372 215° Southwest 197 227 27,300 1,560 Climbing Boston Center
10:52AM 40.7131 -73.0792 216° Southwest 198 228 28,800 1,560 Climbing Boston Center
10:53AM 40.6717 -73.1183 216° Southwest 187 215 30,500 1,200 Climbing Boston Center
10:54AM 40.6297 -73.1581 216° Southwest 186 214 31,300 780 Climbing Boston Center
10:55AM 40.5839 -73.1994 214° Southwest 197 227 32,200 900 Climbing Boston Center
10:56AM 40.5256 -73.2550 216° Southwest 215 247 33,200 840 Climbing Boston Center
10:57AM 40.4764 -73.3003 215° Southwest 216 249 34,000 360 Climbing Boston Center
10:58AM 40.4219 -73.3528 216° Southwest 238 274 34,000  Level Boston Center
10:59AM 40.3611 -73.4069 214° Southwest 260 299 34,000  Level Boston Center
11:00AM 40.2983 -73.4650 215° Southwest 274 315 34,000  Level Boston Center
11:01AM 40.2358 -73.5236 216° Southwest 276 318 34,000  Level Boston Center
11:02AM 40.1769 -73.5797 216° Southwest 280 322 34,000  Level Boston Center
11:03AM 40.1003 -73.6483 214° Southwest 279 321 34,000  Level Boston Center
11:04AM 40.0464 -73.6978 215° Southwest 274 315 34,000  Level Boston Center
11:05AM 39.9850 -73.7547 215° Southwest 270 311 34,000  Level Boston Center
11:06AM 39.9258 -73.8097 215° Southwest 263 303 34,000  Level Boston Center
11:07AM 39.8675 -73.8633 215° Southwest 258 297 34,000  Level Boston Center
11:08AM 39.7983 -73.9261 215° Southwest 253 291 34,000  Level Boston Center
11:09AM 39.7397 -73.9789 215° Southwest 254 292 34,000  Level Boston Center
11:10AM 39.6814 -74.0319 215° Southwest 255 293 34,000  Level Boston Center
11:11AM 39.6231 -74.0853 215° Southwest 256 295 34,000  Level Boston Center
11:12AM 39.5642 -74.1383 215° Southwest 257 296 34,000  Level Boston Center
11:13AM 39.5036 -74.1928 215° Southwest 262 302 34,000  Level Boston Center
11:14AM 39.4444 -74.2453 214° Southwest 259 298 34,000  Level Boston Center
11:15AM 39.3847 -74.2992 215° Southwest 261 300 34,000  Level Boston Center
11:16AM 39.3239 -74.3536 215° Southwest 263 303 34,000  Level Boston Center
11:18AM 39.2494 -74.4258 217° Southwest 262 302 34,000  Level Washington Center
11:19AM 39.1894 -74.4775 214° Southwest 269 310 34,000  Level Washington Center
11:20AM 39.1275 -74.5319 214° Southwest 269 310 34,000  Level Washington Center
11:21AM 39.0675 -74.5836 214° Southwest 269 310 34,000  Level Washington Center
11:22AM 39.0075 -74.6406 216° Southwest 269 310 34,000  Level Washington Center
11:23AM 38.9453 -74.6922 213° Southwest 269 310 34,000  Level Washington Center
11:24AM 38.8853 -74.7464 215° Southwest 269 310 34,000  Level Washington Center
11:25AM 38.8208 -74.8003 213° Southwest 269 310 34,000  Level Washington Center
11:26AM 38.7608 -74.8569 216° Southwest 275 316 34,000  Level Washington Center
11:27AM 38.6986 -74.9106 214° Southwest 275 316 34,000  Level Washington Center
11:28AM 38.6406 -74.9750 221° Southwest 275 316 34,000  Level Washington Center
11:29AM 38.5847 -75.0339 220° Southwest 270 311 34,000  Level Washington Center
11:30AM 38.5308 -75.0956 222° Southwest 270 311 34,000  Level Washington Center
11:31AM 38.4725 -75.1567 219° Southwest 270 311 34,000  Level Washington Center
11:32AM 38.4164 -75.2181 221° Southwest 270 311 34,000 -60 Level Washington Center
11:33AM 38.3603 -75.2819 222° Southwest 270 311 33,900 -660 Descending Washington Center
11:34AM 38.3000 -75.3511 222° Southwest 277 319 32,700 -960 Descending Washington Center
11:35AM 38.2439 -75.4144 222° Southwest 277 319 32,000 -360 Descending Washington Center
11:36AM 38.1856 -75.4781 221° Southwest 272 313 32,000  Level Washington Center
11:37AM 38.1211 -75.5336 214° Southwest 280 322 32,000  Level Washington Center
11:38AM 38.0606 -75.5997 221° Southwest 286 329 32,000  Level Washington Center
11:39AM 38.0042 -75.6656 223° Southwest 286 329 32,000  Level Washington Center
11:40AM 37.9436 -75.7339 222° Southwest 286 329 32,000  Level Washington Center
11:41AM 37.8853 -75.7944 219° Southwest 286 329 32,000  Level Washington Center
11:42AM 37.8203 -75.8600 219° Southwest 286 329 32,000  Level Washington Center
11:43AM 37.7639 -75.9256 223° Southwest 286 329 32,000  Level Washington Center
11:44AM 37.7033 -75.9908 220° Southwest 286 329 32,000  Level Washington Center
11:45AM 37.6425 -76.0533 219° Southwest 292 336 32,000 -60 Level Washington Center
11:46AM 37.5797 -76.1211 221° Southwest 292 336 31,900 -600 Descending Washington Center
11:47AM 37.5169 -76.1808 217° Southwest 292 336 30,800 -960 Descending Washington Center
11:48AM 37.4581 -76.2433 220° Southwest 287 330 30,000 -600 Descending Washington Center
11:49AM 37.3972 -76.3056 219° Southwest 287 330 29,600 -960 Descending Washington Center
11:50AM 37.3342 -76.3728 220° Southwest 282 325 28,200 -1,380 Descending Washington Center
11:51AM 37.2692 -76.4347 217° Southwest 289 333 26,900 -1,260 Descending Washington Center
11:52AM 37.2039 -76.5072 222° Southwest 301 346 25,700 -1,320 Descending Washington Center
11:53AM 37.1389 -76.5767 220° Southwest 307 353 24,400 -1,380 Descending Washington Center
11:54AM 37.0714 -76.6461 219° Southwest 312 359 23,000 -1,260 Descending Washington Center
11:55AM 37.0164 -76.7286 230° Southwest 312 359 21,900 -1,200 Descending Washington Center
11:56AM 36.9656 -76.8136 233° Southwest 306 352 20,600 -960 Descending Washington Center
11:57AM 36.9125 -76.8958 231° Southwest 306 352 20,000 -360 Descending Washington Center
11:58AM 36.8639 -76.9703 231° Southwest 301 346 20,000  Level Washington Center
11:59AM 36.8150 -77.0422 230° Southwest 290 334 20,000  Level Washington Center
12:00PM 36.7681 -77.1192 233° Southwest 284 327 20,000  Level Washington Center
12:01PM 36.7169 -77.1933 229° Southwest 284 327 20,000  Level Washington Center
12:02PM 36.6700 -77.2675 232° Southwest 284 327 20,000  Level Washington Center
12:03PM 36.6211 -77.3414 231° Southwest 279 321 20,000  Level Washington Center
12:04PM 36.5742 -77.4128 231° Southwest 279 321 20,000  Level Washington Center
12:05PM 36.5269 -77.4867 232° Southwest 279 321 20,000  Level Washington Center
12:06PM 36.4800 -77.5578 231° Southwest 279 321 20,000  Level Washington Center
12:07PM 36.4308 -77.6314 230° Southwest 279 321 20,000  Level Washington Center
12:08PM 36.3836 -77.7075 232° Southwest 279 321 20,000  Level Washington Center
12:09PM 36.3342 -77.7811 230° Southwest 279 321 20,000  Level Washington Center
12:10PM 36.2828 -77.8544 229° Southwest 279 321 20,000  Level Washington Center
12:11PM 36.2356 -77.9328 233° Southwest 279 321 20,000  Level Washington Center
12:12PM 36.1839 -78.0058 229° Southwest 279 321 20,000  Level Washington Center
12:13PM 36.1322 -78.0814 230° Southwest 279 321 20,000  Level Washington Center
12:14PM 36.0828 -78.1569 231° Southwest 284 327 20,000 -360 Level Washington Center
12:15PM 36.0331 -78.2300 230° Southwest 284 327 19,400 -720 Descending Washington Center
12:15PM 36.0050 -78.2700 229° Southwest 292 336 19,000 -1,080 Descending Washington Center
12:15PM 35.9964 -78.2825 230° Southwest 295 339 18,700 -1,500 Descending Washington Center
12:16PM 35.9769 -78.3153 234° Southwest 299 344 18,200 -1,320 Descending Washington Center
12:16PM 35.9403 -78.3653 228° Southwest 330 380 17,400 -1,200 Descending Washington Center
12:17PM 35.9253 -78.3878 231° Southwest 311 358 17,000 -1,560 Descending Washington Center
12:17PM 35.8733 -78.4631 230° Southwest 319 367 15,700 -1,620 Descending Washington Center
12:18PM 35.8647 -78.4806 239° Southwest 321 369 15,400 -1,800 Descending Washington Center
12:18PM 35.8194 -78.5403 227° Southwest 305 351 13,900 -1,860 Descending Washington Center
12:19PM 35.8125 -78.5581 244° Southwest 321 369 13,600 -1,620 Descending Washington Center
12:19PM 35.7672 -78.6178 227° Southwest 285 328 12,300 -1,620 Descending Washington Center
12:20PM 35.7606 -78.6356 245° Southwest 310 357 12,000 -1,500 Descending Washington Center
12:20PM 35.7156 -78.6822 220° Southwest 264 304 10,800 -1,500 Descending Washington Center
12:21PM 35.7069 -78.6947 230° Southwest 287 330 10,500 -1,500 Descending Washington Center
12:22PM 35.6450 -78.7436 213° Southwest 274 315 9,000 -1,500 Descending Washington Center
12:23PM 35.6017 -78.8056 229° Southwest 264 304 7,600 -1,500 Descending Washington Center
12:24PM 35.5581 -78.8781 234° Southwest 269 310 6,100 -1,620 Descending Washington Center
12:25PM 35.5186 -78.9428 233° Southwest 264 304 4,400 -1,740 Descending Washington Center
12:27PM 35.4458 -79.0730 231° Southwest  Level FlightAware Approximate
12:34PM 35.2333 -79.3833 239° Southwest  Level FlightAware Approximate
12:35PM 35.2374 -79.3890 239° Southwest  Level Estimated
12:36PM 35.2333 -79.3833 239° Southwest  Level FlightAware Approximate